Terminal Aerodrome Forecast
Issued by NWS

Home | Current Version | Previous Version | Text Only | Print | Product List | Glossary On
Versions: 1 2 3 4 5 6 7 8 9 10 11 12 13 14 15 16 17 18 19 20 21 22 23 24 25 26 27 28 29 30 31 32 33 34 35 36 37 38 39 40 41 42 43
000
FTUS45 KBOU 181902 AAA
TAFAPA
TAF AMD
KAPA 181902Z 1819/1918 03009KT P6SM FEW100 SCT150
     FM182000 06010KT P6SM VCTS SCT080CB BKN110
      TEMPO 1820/1824 VRB15G30KT -TSRA BKN080CB
     FM190200 14009KT P6SM SCT080 BKN110
     FM190500 20011KT P6SM SCT110
     FM191600 12009KT P6SM FEW070 BKN200=

USA.gov is the U.S. government's official web portal to all federal, state and local government web resources and services.